Time;durP1;ratioP1;P1;durP2;ratioP2;P2;SDS_P1;SDS_P2;PMS_P1;PMS_P2;Temp;Humidity;BMP_temperature;BMP_pressure;BME280_temperature;BME280_humidity;BME280_pressure;Samples;Min_cycle;Max_cycle;Signal;HPM_P1;HPM_P2
2021/09/19 00:00:49;;;;;;;15.32;12.00;;;;;;;;;;4816898;29;20046;-90
2021/09/19 04:31:39;;;;;;;12.52;8.57;;;;;;;;;;6090663;23;20022;-88
2021/09/19 04:34:24;;;;;;;10.13;7.65;;;;;;;;;;4865042;29;20100;-90
2021/09/19 04:37:13;;;;;;;11.15;8.38;;;;;;;;;;4884033;29;20108;-84
2021/09/19 04:39:58;;;;;;;11.60;8.52;;;;;;;;;;4882610;29;20037;-83
2021/09/19 04:42:44;;;;;;;11.18;7.50;;;;;;;;;;4882345;29;20160;-84
2021/09/19 04:45:29;;;;;;;9.93;8.13;;;;;;;;;;4899863;29;22247;-82
2021/09/19 04:48:14;;;;;;;11.73;8.60;;;;;;;;;;4894026;29;20031;-88
2021/09/19 04:50:59;;;;;;;9.85;7.53;;;;;;;;;;4884517;29;20471;-87
2021/09/19 04:53:44;;;;;;;10.90;7.15;;;;;;;;;;4897532;29;20038;-88
2021/09/19 04:56:30;;;;;;;8.80;6.75;;;;;;;;;;4898083;29;20475;-88
2021/09/19 04:59:15;;;;;;;11.57;7.05;;;;;;;;;;4899461;29;20024;-89
2021/09/19 05:02:00;;;;;;;12.27;6.90;;;;;;;;;;4897150;29;20376;-88
2021/09/19 05:04:45;;;;;;;10.82;7.15;;;;;;;;;;4896504;29;20153;-87
2021/09/19 05:07:31;;;;;;;10.43;8.15;;;;;;;;;;4893577;29;20028;-87
2021/09/19 05:10:16;;;;;;;11.68;8.02;;;;;;;;;;4890027;29;20554;-88
2021/09/19 05:13:01;;;;;;;9.88;7.63;;;;;;;;;;4890538;29;20032;-88
2021/09/19 05:15:47;;;;;;;10.35;7.82;;;;;;;;;;4905880;29;20046;-88
2021/09/19 05:18:32;;;;;;;10.38;7.95;;;;;;;;;;4895089;29;20028;-89
2021/09/19 05:21:17;;;;;;;10.75;7.80;;;;;;;;;;4904986;29;20031;-88
2021/09/19 05:24:02;;;;;;;10.63;7.43;;;;;;;;;;4889495;29;20329;-87
2021/09/19 05:26:48;;;;;;;13.95;7.68;;;;;;;;;;4903246;29;20024;-88
2021/09/19 05:29:33;;;;;;;9.45;6.57;;;;;;;;;;4888330;29;20448;-87
2021/09/19 05:32:18;;;;;;;9.07;6.97;;;;;;;;;;4905633;29;20148;-87
2021/09/19 05:35:04;;;;;;;8.35;6.45;;;;;;;;;;4896542;29;20070;-88
2021/09/19 05:37:50;;;;;;;10.48;7.20;;;;;;;;;;4902704;29;20028;-86
2021/09/19 05:40:35;;;;;;;9.75;6.85;;;;;;;;;;4904919;29;20032;-87
2021/09/19 05:43:20;;;;;;;8.20;6.40;;;;;;;;;;4895331;29;20028;-86
2021/09/19 05:46:08;;;;;;;9.93;6.93;;;;;;;;;;4909368;29;20032;-88
2021/09/19 05:48:53;;;;;;;10.27;7.47;;;;;;;;;;4891523;29;20025;-87
2021/09/19 05:51:38;;;;;;;12.27;7.28;;;;;;;;;;4890521;29;20054;-87
2021/09/19 05:54:24;;;;;;;10.85;7.70;;;;;;;;;;4911778;29;20063;-87
2021/09/19 05:57:09;;;;;;;11.85;7.45;;;;;;;;;;4895893;29;20051;-88
2021/09/19 05:59:54;;;;;;;10.98;8.10;;;;;;;;;;4907767;29;20029;-87
2021/09/19 06:02:40;;;;;;;11.15;7.80;;;;;;;;;;4895661;29;20032;-86
2021/09/19 06:05:25;;;;;;;11.18;8.13;;;;;;;;;;4897893;29;20032;-87
2021/09/19 06:08:10;;;;;;;9.63;7.53;;;;;;;;;;4892672;29;20032;-87
2021/09/19 06:10:57;;;;;;;9.93;7.35;;;;;;;;;;4888974;29;20028;-87
2021/09/19 06:13:42;;;;;;;12.70;8.98;;;;;;;;;;4891339;29;20484;-87
2021/09/19 06:16:27;;;;;;;11.43;7.90;;;;;;;;;;4896720;29;20347;-88
2021/09/19 06:19:13;;;;;;;13.38;8.45;;;;;;;;;;4902048;29;20036;-88
2021/09/19 06:21:59;;;;;;;10.32;7.95;;;;;;;;;;4901328;29;20064;-87
2021/09/19 06:24:44;;;;;;;15.32;8.43;;;;;;;;;;4900961;29;20045;-87
2021/09/19 06:27:30;;;;;;;12.55;8.77;;;;;;;;;;4903561;29;20035;-87
2021/09/19 06:30:15;;;;;;;11.15;7.57;;;;;;;;;;4901230;29;20028;-87
2021/09/19 06:33:06;;;;;;;11.88;8.52;;;;;;;;;;4900344;29;20067;-88
2021/09/19 06:35:51;;;;;;;11.40;8.30;;;;;;;;;;4906552;29;20035;-88
2021/09/19 06:38:36;;;;;;;12.30;7.85;;;;;;;;;;4901033;29;20034;-87
2021/09/19 06:41:22;;;;;;;10.52;8.32;;;;;;;;;;4898560;29;20188;-87
2021/09/19 06:44:07;;;;;;;10.02;7.95;;;;;;;;;;4934385;23;20058;-85
2021/09/19 06:46:56;;;;;;;11.80;8.95;;;;;;;;;;4919835;29;20028;-86
2021/09/19 06:49:41;;;;;;;12.10;8.40;;;;;;;;;;4923090;29;20383;-88
2021/09/19 06:52:26;;;;;;;11.68;9.02;;;;;;;;;;4923438;29;20036;-87
2021/09/19 06:55:12;;;;;;;11.27;8.82;;;;;;;;;;4923154;29;20058;-89
2021/09/19 06:57:58;;;;;;;10.45;8.15;;;;;;;;;;4924980;29;20280;-89
2021/09/19 07:00:44;;;;;;;10.70;8.30;;;;;;;;;;4931979;29;20055;-87
2021/09/19 07:03:29;;;;;;;12.73;8.65;;;;;;;;;;4918923;29;20467;-86
2021/09/19 07:06:15;;;;;;;14.82;9.55;;;;;;;;;;4917588;29;20063;-87
2021/09/19 07:09:00;;;;;;;10.65;8.38;;;;;;;;;;4920617;29;20022;-88
2021/09/19 07:11:46;;;;;;;10.88;7.28;;;;;;;;;;4917169;29;20035;-89
2021/09/19 07:14:31;;;;;;;10.00;7.13;;;;;;;;;;4934164;29;20080;-90
2021/09/19 07:17:16;;;;;;;10.38;8.07;;;;;;;;;;4919516;29;20034;-87
2021/09/19 07:20:02;;;;;;;10.32;7.68;;;;;;;;;;4918328;29;20031;-87
2021/09/19 07:22:47;;;;;;;11.93;8.52;;;;;;;;;;4917312;29;20035;-86
2021/09/19 07:25:32;;;;;;;11.52;8.00;;;;;;;;;;4918862;29;20107;-86
2021/09/19 07:28:18;;;;;;;11.15;8.93;;;;;;;;;;4914087;29;20032;-86
2021/09/19 07:31:03;;;;;;;10.45;8.15;;;;;;;;;;4917980;29;20044;-86
2021/09/19 07:33:50;;;;;;;13.45;7.57;;;;;;;;;;4916513;29;20035;-86
2021/09/19 07:36:36;;;;;;;9.48;7.60;;;;;;;;;;4925557;29;20078;-86
2021/09/19 07:39:22;;;;;;;10.50;8.18;;;;;;;;;;4911965;29;20052;-85
2021/09/19 07:42:07;;;;;;;9.45;6.47;;;;;;;;;;4916834;29;20019;-85
2021/09/19 07:44:52;;;;;;;12.30;6.15;;;;;;;;;;4932140;29;20056;-86
2021/09/19 07:47:38;;;;;;;9.65;6.40;;;;;;;;;;4915548;29;20028;-85
2021/09/19 07:50:23;;;;;;;14.73;6.22;;;;;;;;;;4917886;29;20290;-84
2021/09/19 07:53:08;;;;;;;10.48;6.20;;;;;;;;;;4907944;29;20024;-84
2021/09/19 07:55:54;;;;;;;11.68;7.07;;;;;;;;;;4921184;29;20024;-85
2021/09/19 07:58:39;;;;;;;8.55;5.85;;;;;;;;;;4927006;29;20024;-86
2021/09/19 08:01:24;;;;;;;7.63;5.38;;;;;;;;;;4921842;29;20064;-87
2021/09/19 08:04:09;;;;;;;8.10;6.00;;;;;;;;;;4916707;29;20024;-85
2021/09/19 08:06:55;;;;;;;7.18;5.30;;;;;;;;;;4918068;29;20521;-83
2021/09/19 08:09:40;;;;;;;9.63;5.00;;;;;;;;;;4917137;29;20115;-86
2021/09/19 08:12:25;;;;;;;7.07;4.90;;;;;;;;;;4918254;29;20035;-86
2021/09/19 08:15:10;;;;;;;6.78;5.30;;;;;;;;;;4905455;29;20028;-86
2021/09/19 08:17:56;;;;;;;6.93;5.22;;;;;;;;;;4917074;29;20229;-85
2021/09/19 08:20:41;;;;;;;5.75;4.43;;;;;;;;;;4917878;29;20095;-85
2021/09/19 08:23:26;;;;;;;5.80;4.10;;;;;;;;;;4913139;29;20024;-85
2021/09/19 08:26:11;;;;;;;5.85;4.07;;;;;;;;;;4918888;29;20114;-84
2021/09/19 08:28:57;;;;;;;5.35;4.70;;;;;;;;;;4898640;29;20471;-85
2021/09/19 08:31:42;;;;;;;6.80;4.57;;;;;;;;;;4926383;29;20075;-85
2021/09/19 08:34:27;;;;;;;8.27;4.28;;;;;;;;;;4915997;29;20394;-85
2021/09/19 08:37:12;;;;;;;6.88;3.92;;;;;;;;;;4919551;29;20336;-86
2021/09/19 08:39:57;;;;;;;5.10;3.78;;;;;;;;;;4914728;29;20096;-85
2021/09/19 08:42:43;;;;;;;4.97;4.10;;;;;;;;;;4918532;29;20042;-85
2021/09/19 08:45:28;;;;;;;5.03;3.55;;;;;;;;;;4916768;29;20032;-84
2021/09/19 08:48:16;;;;;;;4.80;3.42;;;;;;;;;;4921098;29;20095;-85
2021/09/19 08:51:01;;;;;;;4.85;3.40;;;;;;;;;;4919943;29;20040;-86
2021/09/19 08:53:46;;;;;;;9.77;4.05;;;;;;;;;;4917067;29;20114;-86
2021/09/19 08:56:31;;;;;;;5.10;4.00;;;;;;;;;;4916392;29;20028;-85
2021/09/19 08:59:17;;;;;;;5.25;3.38;;;;;;;;;;4917890;29;20028;-85
2021/09/19 09:02:02;;;;;;;6.07;4.25;;;;;;;;;;4915967;29;20493;-83
2021/09/19 09:04:53;;;;;;;5.63;4.10;;;;;;;;;;4909620;29;20638;-85
2021/09/19 09:07:38;;;;;;;6.10;4.10;;;;;;;;;;4913920;29;20027;-85
2021/09/19 09:10:42;;;;;;;6.20;3.85;;;;;;;;;;4917029;29;20027;-86
2021/09/19 09:13:33;;;;;;;6.63;3.83;;;;;;;;;;4926874;29;20074;-85
2021/09/19 09:16:19;;;;;;;6.13;4.00;;;;;;;;;;4926719;29;20111;-85
2021/09/19 09:19:09;;;;;;;5.78;3.80;;;;;;;;;;4917023;29;20027;-85
2021/09/19 09:22:01;;;;;;;5.97;3.72;;;;;;;;;;4912282;29;20031;-85
2021/09/19 09:25:01;;;;;;;4.38;3.50;;;;;;;;;;4909410;29;20034;-83
2021/09/19 09:27:47;;;;;;;6.32;3.78;;;;;;;;;;4901150;29;20035;-87
2021/09/19 09:30:33;;;;;;;5.78;4.05;;;;;;;;;;4939140;29;20031;-87
2021/09/19 09:33:18;;;;;;;7.18;4.03;;;;;;;;;;4905408;29;20058;-87
2021/09/19 09:36:08;;;;;;;4.28;3.63;;;;;;;;;;4914167;29;20499;-87
2021/09/19 09:38:53;;;;;;;5.65;3.50;;;;;;;;;;4889728;29;20051;-88
2021/09/19 09:41:41;;;;;;;6.63;4.63;;;;;;;;;;4900227;29;20040;-88
2021/09/19 09:44:33;;;;;;;6.50;5.78;;;;;;;;;;4913738;29;20051;-87
2021/09/19 09:47:20;;;;;;;6.03;4.80;;;;;;;;;;4916209;29;20032;-86
2021/09/19 09:50:05;;;;;;;6.10;4.05;;;;;;;;;;4915118;29;20032;-86
2021/09/19 09:52:51;;;;;;;5.28;3.95;;;;;;;;;;4919605;29;20059;-86
2021/09/19 09:55:40;;;;;;;4.70;3.90;;;;;;;;;;4920497;29;20031;-84
2021/09/19 09:58:26;;;;;;;5.30;4.00;;;;;;;;;;4918697;29;20059;-86
2021/09/19 10:01:12;;;;;;;4.32;3.60;;;;;;;;;;4899294;29;20062;-84
2021/09/19 10:03:57;;;;;;;5.13;4.15;;;;;;;;;;4907840;29;20039;-87
2021/09/19 10:06:42;;;;;;;4.95;3.60;;;;;;;;;;4917429;29;20031;-88
2021/09/19 10:09:28;;;;;;;4.88;3.60;;;;;;;;;;4910710;29;20044;-89
2021/09/19 10:12:13;;;;;;;4.38;3.65;;;;;;;;;;4915999;29;20063;-91
2021/09/19 10:14:58;;;;;;;6.07;4.30;;;;;;;;;;4920590;29;20427;-90
2021/09/19 10:17:44;;;;;;;4.75;4.25;;;;;;;;;;4920723;29;20031;-90
2021/09/19 10:20:30;;;;;;;6.53;3.50;;;;;;;;;;4934169;29;20409;-89
2021/09/19 10:23:24;;;;;;;5.68;4.68;;;;;;;;;;4919985;29;20030;-89
2021/09/19 10:26:12;;;;;;;6.50;4.30;;;;;;;;;;4915032;29;20474;-89
2021/09/19 10:29:01;;;;;;;5.65;4.50;;;;;;;;;;4918537;29;20031;-86
2021/09/19 10:31:46;;;;;;;4.60;3.60;;;;;;;;;;4926395;29;20106;-84
2021/09/19 10:34:32;;;;;;;5.00;3.97;;;;;;;;;;4919893;29;20387;-86
2021/09/19 10:37:37;;;;;;;4.97;4.50;;;;;;;;;;4919869;29;20020;-86
2021/09/19 10:40:32;;;;;;;6.15;4.13;;;;;;;;;;4914506;29;20119;-87
2021/09/19 10:43:23;;;;;;;4.78;4.07;;;;;;;;;;4915036;29;20050;-86
2021/09/19 10:46:29;;;;;;;4.60;4.10;;;;;;;;;;4917820;29;20066;-86
2021/09/19 10:49:19;;;;;;;6.80;4.13;;;;;;;;;;4919661;29;20529;-83
2021/09/19 10:52:04;;;;;;;6.03;3.75;;;;;;;;;;4919486;29;20040;-85
2021/09/19 10:54:52;;;;;;;7.05;3.92;;;;;;;;;;4923473;29;20107;-85
2021/09/19 10:57:37;;;;;;;;;;;;;;;;;;4927898;29;20046;-85
2021/09/19 11:00:23;;;;;;;6.60;4.07;;;;;;;;;;4921612;29;19911;-85
2021/09/19 11:03:16;;;;;;;7.15;4.72;;;;;;;;;;4917596;29;20043;-83
2021/09/19 11:06:01;;;;;;;8.48;4.32;;;;;;;;;;4931109;29;20028;-84
2021/09/19 11:08:46;;;;;;;4.63;4.18;;;;;;;;;;4933045;29;20028;-85
2021/09/19 11:11:32;;;;;;;6.30;4.80;;;;;;;;;;4917467;29;20028;-86
2021/09/19 11:14:17;;;;;;;8.43;4.95;;;;;;;;;;4927493;29;20250;-85
2021/09/19 11:17:20;;;;;;;6.75;4.53;;;;;;;;;;4919519;29;20408;-86
2021/09/19 11:20:14;;;;;;;3.90;3.50;;;;;;;;;;4913580;29;20036;-84
2021/09/19 11:23:19;;;;;;;4.43;3.58;;;;;;;;;;4921943;29;20027;-84
2021/09/19 11:26:05;;;;;;;3.78;3.20;;;;;;;;;;4919720;29;20035;-86
2021/09/19 11:28:54;;;;;;;6.95;4.28;;;;;;;;;;4919331;29;20024;-85
2021/09/19 11:31:40;;;;;;;5.32;3.88;;;;;;;;;;4932643;29;20483;-85
2021/09/19 11:34:26;;;;;;;6.03;4.38;;;;;;;;;;4930635;29;20182;-86
2021/09/19 11:37:11;;;;;;;4.85;3.75;;;;;;;;;;4916329;29;20479;-86
2021/09/19 11:39:58;;;;;;;6.57;4.10;;;;;;;;;;4917140;29;20028;-86
2021/09/19 11:42:43;;;;;;;5.57;3.90;;;;;;;;;;4928226;29;20599;-87
2021/09/19 11:45:29;;;;;;;5.32;4.07;;;;;;;;;;4899369;29;20312;-87
2021/09/19 11:48:14;;;;;;;6.72;4.55;;;;;;;;;;4903807;29;20167;-87
2021/09/19 11:51:00;;;;;;;7.15;4.45;;;;;;;;;;4899102;29;20024;-87
2021/09/19 11:53:50;;;;;;;6.95;4.50;;;;;;;;;;4894790;29;20163;-86
2021/09/19 11:56:37;;;;;;;5.82;4.40;;;;;;;;;;4896279;29;20032;-87
2021/09/19 11:59:22;;;;;;;5.88;4.25;;;;;;;;;;4894459;29;20035;-87
2021/09/19 12:02:08;;;;;;;5.57;4.20;;;;;;;;;;4898156;29;20043;-87
2021/09/19 12:04:55;;;;;;;5.85;4.60;;;;;;;;;;4895788;29;20024;-87
2021/09/19 12:07:40;;;;;;;7.68;4.50;;;;;;;;;;4894145;29;20097;-86
2021/09/19 12:10:26;;;;;;;8.68;4.75;;;;;;;;;;4893655;29;20035;-84
2021/09/19 12:13:17;;;;;;;7.95;4.28;;;;;;;;;;4895507;29;20099;-87
2021/09/19 12:16:03;;;;;;;6.03;4.72;;;;;;;;;;4896581;29;20310;-88
2021/09/19 12:18:49;;;;;;;4.85;3.72;;;;;;;;;;4904067;29;20032;-85
2021/09/19 12:21:35;;;;;;;6.47;4.95;;;;;;;;;;4892944;29;20066;-86
2021/09/19 12:24:21;;;;;;;5.95;4.53;;;;;;;;;;4905541;29;20470;-84
2021/09/19 12:27:14;;;;;;;5.13;4.10;;;;;;;;;;4893855;29;20580;-87
2021/09/19 12:30:03;;;;;;;5.68;4.55;;;;;;;;;;4889238;29;20126;-87
2021/09/19 12:32:49;;;;;;;;;;;;;;;;;;4897974;29;20027;-87
2021/09/19 12:35:34;;;;;;;6.88;4.40;;;;;;;;;;4897674;29;19917;-86
2021/09/19 12:38:23;;;;;;;6.25;4.70;;;;;;;;;;4895159;29;20028;-87
2021/09/19 12:41:11;;;;;;;7.82;4.60;;;;;;;;;;4881891;29;20029;-87
2021/09/19 12:43:57;;;;;;;6.07;4.15;;;;;;;;;;4897602;29;20052;-88
2021/09/19 12:46:43;;;;;;;7.18;4.07;;;;;;;;;;4911520;29;20028;-86
2021/09/19 12:49:30;;;;;;;6.20;4.47;;;;;;;;;;4913819;29;20529;-85
2021/09/19 12:52:16;;;;;;;5.03;3.83;;;;;;;;;;4931242;29;20055;-85
2021/09/19 12:55:02;;;;;;;5.72;4.60;;;;;;;;;;4916418;29;20027;-85
2021/09/19 12:57:48;;;;;;;6.72;4.28;;;;;;;;;;4917650;29;20031;-88
2021/09/19 13:00:34;;;;;;;5.18;4.22;;;;;;;;;;4909609;29;20443;-89
2021/09/19 13:03:22;;;;;;;5.93;4.10;;;;;;;;;;4923158;29;20027;-88
2021/09/19 13:06:08;;;;;;;6.72;4.00;;;;;;;;;;4914341;29;20023;-88
2021/09/19 13:08:56;;;;;;;5.80;4.28;;;;;;;;;;4917526;29;20032;-88
2021/09/19 13:11:41;;;;;;;5.85;3.78;;;;;;;;;;4916738;29;20576;-88
2021/09/19 13:14:26;;;;;;;7.82;4.47;;;;;;;;;;4917128;29;20031;-90
2021/09/19 13:17:12;;;;;;;6.15;4.68;;;;;;;;;;4916643;29;20035;-88
2021/09/19 13:19:57;;;;;;;6.13;4.50;;;;;;;;;;4918189;29;20374;-89
2021/09/19 13:22:42;;;;;;;9.23;4.82;;;;;;;;;;4916072;29;20047;-89
2021/09/19 13:25:28;;;;;;;5.85;4.57;;;;;;;;;;4909921;29;20393;-90
2021/09/19 13:28:14;;;;;;;5.65;4.57;;;;;;;;;;4917427;29;20024;-89
2021/09/19 13:31:00;;;;;;;5.35;3.85;;;;;;;;;;4932099;29;20111;-89
2021/09/19 13:33:45;;;;;;;5.85;4.15;;;;;;;;;;4913800;29;20064;-88
2021/09/19 13:36:30;;;;;;;6.38;4.10;;;;;;;;;;4916172;29;20027;-87
2021/09/19 13:39:16;;;;;;;8.35;5.15;;;;;;;;;;4918178;29;20474;-88
2021/09/19 13:42:01;;;;;;;5.32;4.45;;;;;;;;;;4904525;29;20781;-88
2021/09/19 13:44:46;;;;;;;6.35;4.68;;;;;;;;;;4910666;29;20048;-89
2021/09/19 13:47:31;;;;;;;5.15;3.88;;;;;;;;;;4904632;29;20054;-88
2021/09/19 13:50:17;;;;;;;9.48;4.65;;;;;;;;;;4898786;29;20027;-88
2021/09/19 13:53:02;;;;;;;6.00;4.55;;;;;;;;;;4898282;29;20138;-87
2021/09/19 13:55:47;;;;;;;4.43;4.03;;;;;;;;;;4892686;29;20035;-88
2021/09/19 13:58:32;;;;;;;8.70;4.80;;;;;;;;;;4900427;29;20024;-89
2021/09/19 14:01:18;;;;;;;5.80;4.00;;;;;;;;;;4911038;29;20592;-88
2021/09/19 14:04:03;;;;;;;8.32;4.50;;;;;;;;;;4910081;29;20510;-89
2021/09/19 14:06:49;;;;;;;6.57;4.68;;;;;;;;;;4903995;29;20067;-89
2021/09/19 14:09:35;;;;;;;6.95;4.55;;;;;;;;;;4887937;29;20043;-88
2021/09/19 14:12:20;;;;;;;6.18;4.50;;;;;;;;;;4889938;29;20017;-87
2021/09/19 14:15:06;;;;;;;4.93;3.97;;;;;;;;;;4903310;29;20462;-88
2021/09/19 14:17:51;;;;;;;5.45;4.22;;;;;;;;;;4896501;29;20380;-89
2021/09/19 14:20:36;;;;;;;6.97;4.47;;;;;;;;;;4906718;29;20032;-88
2021/09/19 14:23:21;;;;;;;5.55;4.55;;;;;;;;;;4872674;29;20032;-89
2021/09/19 14:26:07;;;;;;;6.32;4.82;;;;;;;;;;4896878;29;20028;-88
2021/09/19 14:28:52;;;;;;;6.05;4.60;;;;;;;;;;4908914;29;20558;-87
2021/09/19 14:31:37;;;;;;;6.30;4.15;;;;;;;;;;4920345;29;20087;-89
2021/09/19 14:34:23;;;;;;;6.93;4.70;;;;;;;;;;4893378;29;20403;-88
2021/09/19 14:37:08;;;;;;;5.72;3.60;;;;;;;;;;4914014;29;20028;-89
2021/09/19 14:39:53;;;;;;;5.75;4.25;;;;;;;;;;4902698;29;20368;-88
2021/09/19 14:42:40;;;;;;;5.15;3.67;;;;;;;;;;4902894;29;20025;-89
2021/09/19 14:45:25;;;;;;;6.53;3.88;;;;;;;;;;4902715;29;20051;-87
2021/09/19 14:48:11;;;;;;;6.80;4.78;;;;;;;;;;4923187;29;20020;-88
2021/09/19 14:50:56;;;;;;;5.65;4.03;;;;;;;;;;4918837;29;20031;-88
2021/09/19 14:53:41;;;;;;;5.95;3.60;;;;;;;;;;4926993;29;20773;-89
2021/09/19 14:56:26;;;;;;;6.45;4.80;;;;;;;;;;4918240;29;20032;-89
2021/09/19 14:59:12;;;;;;;5.47;4.55;;;;;;;;;;4905125;29;20052;-85
2021/09/19 15:01:57;;;;;;;8.40;4.10;;;;;;;;;;4919623;29;20426;-83
2021/09/19 15:04:43;;;;;;;6.15;4.25;;;;;;;;;;4923147;29;20100;-85
2021/09/19 15:07:28;;;;;;;7.03;4.05;;;;;;;;;;4911753;29;20128;-84
2021/09/19 15:10:13;;;;;;;5.78;4.05;;;;;;;;;;4920730;29;20027;-85
2021/09/19 15:12:59;;;;;;;6.25;4.07;;;;;;;;;;4930160;29;20075;-85
2021/09/19 15:15:44;;;;;;;7.40;4.72;;;;;;;;;;4923695;29;20020;-85
2021/09/19 15:18:29;;;;;;;5.63;3.92;;;;;;;;;;4918224;29;20039;-85
2021/09/19 15:21:14;;;;;;;5.68;4.07;;;;;;;;;;4921513;29;20517;-86
2021/09/19 15:24:00;;;;;;;5.53;4.32;;;;;;;;;;4915006;29;20020;-87
2021/09/19 15:26:45;;;;;;;4.60;4.00;;;;;;;;;;4929919;29;20032;-86
2021/09/19 15:29:30;;;;;;;5.35;3.83;;;;;;;;;;4930414;29;20475;-86
2021/09/19 15:32:15;;;;;;;6.07;4.32;;;;;;;;;;4926963;29;20028;-86
2021/09/19 15:35:00;;;;;;;4.40;3.65;;;;;;;;;;4942275;29;20063;-85
2021/09/19 15:37:46;;;;;;;7.55;4.43;;;;;;;;;;4922583;29;20031;-84
2021/09/19 15:40:55;;;;;;;5.68;4.25;;;;;;;;;;4913272;29;20079;-85
2021/09/19 15:43:38;;;;;;;5.63;3.65;;;;;;;;;;4917800;29;20529;-86
2021/09/19 15:46:23;;;;;;;5.60;4.32;;;;;;;;;;4913847;29;20027;-88
2021/09/19 15:49:13;;;;;;;5.75;3.85;;;;;;;;;;4938436;28;20046;-87
2021/09/19 15:51:58;;;;;;;7.28;3.50;;;;;;;;;;4922997;29;20399;-85
2021/09/19 15:54:43;;;;;;;3.85;3.15;;;;;;;;;;4916367;29;20020;-83
2021/09/19 15:57:28;;;;;;;6.03;4.10;;;;;;;;;;4912561;29;20036;-85
2021/09/19 16:00:14;;;;;;;5.07;4.13;;;;;;;;;;4913015;29;20024;-84
2021/09/19 16:02:59;;;;;;;4.78;3.85;;;;;;;;;;4895953;29;20047;-84
2021/09/19 16:05:48;;;;;;;5.18;3.67;;;;;;;;;;4902848;29;20164;-85
2021/09/19 16:08:33;;;;;;;4.95;4.20;;;;;;;;;;4922926;29;20039;-85
2021/09/19 16:11:18;;;;;;;7.32;4.60;;;;;;;;;;4914872;29;20019;-85
2021/09/19 16:14:04;;;;;;;7.20;4.18;;;;;;;;;;4910303;29;20031;-85
2021/09/19 16:16:49;;;;;;;7.03;4.43;;;;;;;;;;4906070;29;20099;-84
2021/09/19 16:19:34;;;;;;;5.85;4.25;;;;;;;;;;4905245;29;20027;-84
2021/09/19 16:22:20;;;;;;;4.78;3.72;;;;;;;;;;4922619;29;20027;-84
2021/09/19 16:25:05;;;;;;;5.05;4.20;;;;;;;;;;4894400;29;20357;-85
2021/09/19 16:27:50;;;;;;;4.57;3.63;;;;;;;;;;4924449;29;20066;-84
2021/09/19 16:30:36;;;;;;;5.10;3.97;;;;;;;;;;4922281;29;20028;-84
2021/09/19 16:33:22;;;;;;;5.03;3.65;;;;;;;;;;4912941;29;20038;-85
2021/09/19 16:36:07;;;;;;;6.70;3.70;;;;;;;;;;4930356;29;20031;-85
2021/09/19 16:38:52;;;;;;;8.45;6.00;;;;;;;;;;4928251;29;20056;-85
2021/09/19 16:41:37;;;;;;;12.95;8.88;;;;;;;;;;4915920;29;20378;-86
2021/09/19 16:44:22;;;;;;;6.32;4.47;;;;;;;;;;4925760;29;20491;-85
2021/09/19 16:47:08;;;;;;;4.95;3.63;;;;;;;;;;4917823;29;20387;-86
2021/09/19 16:49:53;;;;;;;4.70;3.78;;;;;;;;;;4912705;29;20435;-84
2021/09/19 16:52:38;;;;;;;4.88;4.00;;;;;;;;;;4919911;29;20028;-86
2021/09/19 16:55:23;;;;;;;7.63;4.47;;;;;;;;;;4916225;29;20452;-85
2021/09/19 16:58:09;;;;;;;5.55;3.85;;;;;;;;;;4915278;29;20471;-85
2021/09/19 17:01:02;;;;;;;7.07;4.53;;;;;;;;;;4917653;29;20023;-86
2021/09/19 17:03:49;;;;;;;6.78;4.10;;;;;;;;;;4917350;29;20050;-85
2021/09/19 17:06:34;;;;;;;4.97;4.13;;;;;;;;;;4911433;29;20028;-85
2021/09/19 17:09:20;;;;;;;6.88;4.78;;;;;;;;;;4912905;29;20366;-85
2021/09/19 17:12:05;;;;;;;5.55;4.40;;;;;;;;;;4916882;29;20118;-85
2021/09/19 17:14:51;;;;;;;7.10;4.10;;;;;;;;;;4915659;29;20034;-86
2021/09/19 17:17:37;;;;;;;7.63;4.38;;;;;;;;;;4915440;29;20119;-85
2021/09/19 17:20:24;;;;;;;6.43;3.92;;;;;;;;;;4915018;29;20055;-85
2021/09/19 17:23:09;;;;;;;5.80;4.10;;;;;;;;;;4926422;29;20035;-88
2021/09/19 17:25:55;;;;;;;6.85;4.80;;;;;;;;;;4917708;29;20103;-85
2021/09/19 17:28:40;;;;;;;4.85;3.65;;;;;;;;;;4913482;29;20057;-85
2021/09/19 17:31:27;;;;;;;4.50;3.67;;;;;;;;;;4911680;29;20070;-85
2021/09/19 17:34:12;;;;;;;9.98;4.63;;;;;;;;;;4911236;29;20123;-85
2021/09/19 17:36:57;;;;;;;6.88;4.22;;;;;;;;;;4920984;29;20039;-85
2021/09/19 17:39:43;;;;;;;7.35;4.18;;;;;;;;;;4917981;29;20031;-85
2021/09/19 17:42:28;;;;;;;5.55;4.05;;;;;;;;;;4918402;29;20043;-85
2021/09/19 17:45:13;;;;;;;6.25;4.13;;;;;;;;;;4912072;29;20040;-84
2021/09/19 17:47:59;;;;;;;6.78;4.38;;;;;;;;;;4923268;29;20023;-85
2021/09/19 17:50:51;;;;;;;6.32;4.30;;;;;;;;;;4933810;29;20883;-84
2021/09/19 17:53:37;;;;;;;6.25;4.35;;;;;;;;;;4920481;29;20066;-85
2021/09/19 17:56:22;;;;;;;5.57;4.32;;;;;;;;;;4919370;29;20027;-86
2021/09/19 17:59:08;;;;;;;5.45;4.00;;;;;;;;;;4929480;29;20067;-85
2021/09/19 18:01:53;;;;;;;7.07;3.67;;;;;;;;;;4913045;29;20031;-85
2021/09/19 18:04:38;;;;;;;5.13;3.60;;;;;;;;;;4914135;29;20924;-85
2021/09/19 18:07:24;;;;;;;5.32;4.03;;;;;;;;;;4923989;29;20435;-86
2021/09/19 18:10:10;;;;;;;4.82;3.78;;;;;;;;;;4914976;29;20487;-85
2021/09/19 18:12:55;;;;;;;8.35;3.90;;;;;;;;;;4920393;29;20028;-84
2021/09/19 18:15:41;;;;;;;7.20;4.63;;;;;;;;;;4916545;29;20407;-85
2021/09/19 18:18:27;;;;;;;6.18;3.97;;;;;;;;;;4916647;29;20066;-84
2021/09/19 18:21:12;;;;;;;5.43;4.22;;;;;;;;;;4911013;29;20047;-85
2021/09/19 18:24:00;;;;;;;6.57;4.22;;;;;;;;;;4924996;29;20091;-86
2021/09/19 18:26:46;;;;;;;5.80;4.30;;;;;;;;;;4941274;29;20067;-84
2021/09/19 18:29:31;;;;;;;5.50;3.88;;;;;;;;;;4922567;29;20034;-87
2021/09/19 18:32:16;;;;;;;7.47;4.22;;;;;;;;;;4918692;29;20031;-85
2021/09/19 18:35:01;;;;;;;5.18;4.07;;;;;;;;;;4913995;29;20399;-86
2021/09/19 18:37:47;;;;;;;7.60;4.43;;;;;;;;;;4930086;29;20103;-87
2021/09/19 18:40:33;;;;;;;4.95;3.70;;;;;;;;;;4929883;29;20329;-86
2021/09/19 18:43:18;;;;;;;5.80;3.95;;;;;;;;;;4914660;29;20048;-85
2021/09/19 18:46:03;;;;;;;6.28;4.30;;;;;;;;;;4915668;29;20503;-85
2021/09/19 18:48:49;;;;;;;6.10;4.07;;;;;;;;;;4917184;29;20083;-84
2021/09/19 18:51:34;;;;;;;7.97;4.63;;;;;;;;;;4920612;29;20208;-86
2021/09/19 18:54:19;;;;;;;5.88;4.35;;;;;;;;;;4926743;29;20115;-85
2021/09/19 18:57:04;;;;;;;7.47;4.85;;;;;;;;;;4920234;29;20019;-83
2021/09/19 18:59:50;;;;;;;5.57;4.20;;;;;;;;;;4914533;29;20063;-85
2021/09/19 19:02:35;;;;;;;6.95;4.03;;;;;;;;;;4929811;29;20544;-86
2021/09/19 19:05:20;;;;;;;8.85;4.82;;;;;;;;;;4915108;29;20032;-85
2021/09/19 19:08:06;;;;;;;5.32;3.78;;;;;;;;;;4917213;29;20308;-85
2021/09/19 19:10:51;;;;;;;5.53;4.60;;;;;;;;;;4931823;29;20035;-85
2021/09/19 19:13:37;;;;;;;6.72;4.20;;;;;;;;;;4921443;29;20401;-85
2021/09/19 19:16:22;;;;;;;5.20;4.07;;;;;;;;;;4916478;29;20028;-86
2021/09/19 19:19:07;;;;;;;6.35;4.40;;;;;;;;;;4923855;29;20042;-84
2021/09/19 19:21:52;;;;;;;5.35;4.30;;;;;;;;;;4914896;29;20099;-84
2021/09/19 19:24:37;;;;;;;5.82;4.28;;;;;;;;;;4917483;29;20028;-85
2021/09/19 19:27:23;;;;;;;7.05;4.40;;;;;;;;;;4918169;29;20028;-85
2021/09/19 19:30:08;;;;;;;5.10;4.30;;;;;;;;;;4914370;29;20420;-85
2021/09/19 19:32:54;;;;;;;6.43;4.32;;;;;;;;;;4927135;29;20610;-85
2021/09/19 19:35:40;;;;;;;5.13;4.15;;;;;;;;;;4927393;29;20171;-85
2021/09/19 19:38:25;;;;;;;5.85;4.53;;;;;;;;;;4902155;29;20032;-84
2021/09/19 19:41:10;;;;;;;5.05;3.85;;;;;;;;;;4914618;29;20075;-85
2021/09/19 19:43:56;;;;;;;5.55;4.53;;;;;;;;;;4911420;29;20059;-84
2021/09/19 19:46:41;;;;;;;7.38;4.63;;;;;;;;;;4913811;29;20046;-84
2021/09/19 19:49:26;;;;;;;5.25;4.07;;;;;;;;;;4923884;29;20099;-84
2021/09/19 19:52:12;;;;;;;5.80;4.10;;;;;;;;;;4911278;29;20036;-84
2021/09/19 19:54:57;;;;;;;5.28;4.03;;;;;;;;;;4910294;29;20107;-83
2021/09/19 19:57:42;;;;;;;5.63;4.20;;;;;;;;;;4915098;29;20039;-83
2021/09/19 20:00:27;;;;;;;7.78;4.55;;;;;;;;;;4916703;29;20042;-84
2021/09/19 20:03:13;;;;;;;5.82;4.45;;;;;;;;;;4908285;29;20521;-84
2021/09/19 20:05:58;;;;;;;9.52;4.55;;;;;;;;;;4913558;29;20028;-82
2021/09/19 20:08:43;;;;;;;6.47;4.40;;;;;;;;;;4909697;29;20032;-83
2021/09/19 20:11:28;;;;;;;5.25;4.32;;;;;;;;;;4919671;29;20119;-83
2021/09/19 20:14:14;;;;;;;17.35;10.45;;;;;;;;;;4929840;29;21493;-82
2021/09/19 20:16:59;;;;;;;12.75;8.00;;;;;;;;;;4915637;29;20115;-83
2021/09/19 20:19:45;;;;;;;8.35;4.80;;;;;;;;;;4909133;29;20020;-85
2021/09/19 20:22:30;;;;;;;5.75;4.53;;;;;;;;;;4908658;29;20044;-84
2021/09/19 20:25:17;;;;;;;6.32;4.10;;;;;;;;;;4917190;29;20030;-84
2021/09/19 20:28:02;;;;;;;4.72;3.78;;;;;;;;;;4913586;29;20058;-84
2021/09/19 20:30:48;;;;;;;5.85;5.18;;;;;;;;;;4929255;29;20030;-83
2021/09/19 20:33:33;;;;;;;9.02;3.95;;;;;;;;;;4924737;29;20193;-83
2021/09/19 20:36:18;;;;;;;12.05;4.85;;;;;;;;;;4910756;29;20352;-84
2021/09/19 20:39:03;;;;;;;5.97;3.78;;;;;;;;;;4912716;29;20047;-84
2021/09/19 20:41:48;;;;;;;5.13;3.80;;;;;;;;;;4929804;29;20115;-85
2021/09/19 20:44:34;;;;;;;8.05;3.58;;;;;;;;;;4914464;29;20058;-83
2021/09/19 20:47:20;;;;;;;5.93;4.18;;;;;;;;;;4912079;29;20012;-82
2021/09/19 20:50:06;;;;;;;5.72;3.90;;;;;;;;;;4908603;29;20020;-82
2021/09/19 20:52:51;;;;;;;6.15;4.10;;;;;;;;;;4908876;29;20110;-83
2021/09/19 20:55:36;;;;;;;9.63;4.32;;;;;;;;;;4904701;29;20103;-82
2021/09/19 20:58:22;;;;;;;6.13;4.13;;;;;;;;;;4912779;29;20024;-81
2021/09/19 21:01:08;;;;;;;5.78;3.80;;;;;;;;;;4907433;29;20105;-84